PWSweather.com
Personal Weather Stations
Station Observations
KMAMEDFI2
Medfield, MA 02052

Medfield, MA 02052

Lat: 42.1900822, Lon: -71.3296889

Elevation: 138

Station Type: Rainwise WS MK-III

http://www.medfieldweather.com

High Low Average
Temperature 59.5°F15.3°C 37.3°F2.9°C 48.6°F9.2°C
Dew Point 46.5°F8.1°C 31.2°F-0.4°C 39.0°F3.9°C
Winds 4.6 mph 7.4 kmh Calm Calm 1.0 mph SW1.6 kmh SW
Wind Gusts 9.2 mph14.8 kmh -- 2.0 mph3.2 kmh
Humidity 97% 35% 73%
Pressure 30.51 in1033.2 mb 30.20 in1022.7 mb -
Precipitation 0.00 in0.0 mm - -
Hour Temp Dew Point Humidity Winds Wind Gusts Pressure Precip Precip Rate Daily Precip Total
12:00 AM 37.9°F3.3°C 36.6°F2.6°C 95% Calm Calm -- 30.40 in1029.5 mb - 0.00 in0.0 mm 0.00 in0.0 mm
12:10 AM 37.8°F3.2°C 36.5°F2.5°C 95% Calm Calm -- 30.39 in1029.1 mb - 0.00 in0.0 mm 0.00 in0.0 mm
12:20 AM 37.5°F3.1°C 36.2°F2.3°C 95% Calm Calm -- 30.40 in1029.5 mb - 0.00 in0.0 mm 0.00 in0.0 mm
12:30 AM 37.6°F3.1°C 36.3°F2.4°C 95% 1.2 mph NW1.9 kmh NW 1.2 mph1.9 kmh 30.40 in1029.5 mb - 0.00 in0.0 mm 0.00 in0.0 mm
12:40 AM 37.5°F3.1°C 36.2°F2.3°C 95% 1.2 mph NW1.9 kmh NW 1.2 mph1.9 kmh 30.40 in1029.5 mb - 0.00 in0.0 mm 0.00 in0.0 mm
12:50 AM 37.3°F2.9°C 36.0°F2.2°C 95% Calm Calm 2.3 mph3.7 kmh 30.40 in1029.5 mb - 0.00 in0.0 mm 0.00 in0.0 mm
01:00 AM 37.5°F3.1°C 36.2°F2.3°C 95% 1.2 mph NW1.9 kmh NW 2.3 mph3.7 kmh 30.40 in1029.5 mb - 0.00 in0.0 mm 0.00 in0.0 mm
01:10 AM 37.9°F3.3°C 36.6°F2.6°C 95% Calm Calm -- 30.41 in1029.8 mb - 0.00 in0.0 mm 0.00 in0.0 mm
01:20 AM 38.3°F3.5°C 37.3°F2.9°C 96% Calm Calm -- 30.40 in1029.5 mb - 0.00 in0.0 mm 0.00 in0.0 mm
01:30 AM 38.1°F3.4°C 37.1°F2.8°C 96% Calm Calm -- 30.41 in1029.8 mb - 0.00 in0.0 mm 0.00 in0.0 mm
01:40 AM 38.0°F3.3°C 37.0°F2.8°C 96% Calm Calm -- 30.41 in1029.8 mb - 0.00 in0.0 mm 0.00 in0.0 mm
01:50 AM 38.2°F3.4°C 37.2°F2.9°C 96% Calm Calm -- 30.41 in1029.8 mb - 0.00 in0.0 mm 0.00 in0.0 mm
02:00 AM 37.9°F3.3°C 36.6°F2.6°C 95% Calm Calm -- 30.39 in1029.1 mb - 0.00 in0.0 mm 0.00 in0.0 mm
02:10 AM 37.9°F3.3°C 36.6°F2.6°C 95% Calm Calm -- 30.41 in1029.8 mb - 0.00 in0.0 mm 0.00 in0.0 mm
02:20 AM 37.9°F3.3°C 36.6°F2.6°C 95% Calm Calm -- 30.42 in1030.1 mb - 0.00 in0.0 mm 0.00 in0.0 mm
02:30 AM 38.7°F3.7°C 37.7°F3.2°C 96% Calm Calm -- 30.43 in1030.5 mb - 0.00 in0.0 mm 0.00 in0.0 mm
02:40 AM 38.7°F3.7°C 37.7°F3.2°C 96% Calm Calm -- 30.43 in1030.5 mb - 0.00 in0.0 mm 0.00 in0.0 mm
02:50 AM 38.8°F3.8°C 37.8°F3.2°C 96% Calm Calm -- 30.43 in1030.5 mb - 0.00 in0.0 mm 0.00 in0.0 mm
03:00 AM 38.8°F3.8°C 37.8°F3.2°C 96% Calm Calm -- 30.43 in1030.5 mb - 0.00 in0.0 mm 0.00 in0.0 mm
03:10 AM 38.5°F3.6°C 37.5°F3.1°C 96% Calm Calm -- 30.42 in1030.1 mb - 0.00 in0.0 mm 0.00 in0.0 mm
03:20 AM 38.8°F3.8°C 37.8°F3.2°C 96% Calm Calm -- 30.42 in1030.1 mb - 0.00 in0.0 mm 0.00 in0.0 mm
03:30 AM 38.9°F3.8°C 37.8°F3.2°C 96% Calm Calm -- 30.42 in1030.1 mb - 0.00 in0.0 mm 0.00 in0.0 mm
03:40 AM 39.1°F3.9°C 38.1°F3.4°C 96% Calm Calm -- 30.42 in1030.1 mb - 0.00 in0.0 mm 0.00 in0.0 mm
03:50 AM 39.2°F4.0°C 38.2°F3.4°C 96% Calm Calm -- 30.42 in1030.1 mb - 0.00 in0.0 mm 0.00 in0.0 mm
04:00 AM 39.4°F4.1°C 38.4°F3.6°C 96% Calm Calm -- 30.42 in1030.1 mb - 0.00 in0.0 mm 0.00 in0.0 mm
04:10 AM 39.6°F4.2°C 38.6°F3.7°C 96% Calm Calm -- 30.41 in1029.8 mb - 0.00 in0.0 mm 0.00 in0.0 mm
04:20 AM 39.5°F4.2°C 38.5°F3.6°C 96% Calm Calm -- 30.41 in1029.8 mb - 0.00 in0.0 mm 0.00 in0.0 mm
04:30 AM 39.6°F4.2°C 38.6°F3.7°C 96% Calm Calm -- 30.41 in1029.8 mb - 0.00 in0.0 mm 0.00 in0.0 mm
04:40 AM 39.8°F4.3°C 38.8°F3.8°C 96% Calm Calm -- 30.41 in1029.8 mb - 0.00 in0.0 mm 0.00 in0.0 mm
04:50 AM 39.9°F4.4°C 38.9°F3.8°C 96% 2.3 mph NW3.7 kmh NW 2.3 mph3.7 kmh 30.41 in1029.8 mb - 0.00 in0.0 mm 0.00 in0.0 mm
05:00 AM 40.1°F4.5°C 39.1°F3.9°C 96% Calm Calm -- 30.42 in1030.1 mb - 0.00 in0.0 mm 0.00 in0.0 mm
05:10 AM 40.2°F4.6°C 39.2°F4.0°C 96% Calm Calm -- 30.42 in1030.1 mb - 0.00 in0.0 mm 0.00 in0.0 mm
05:20 AM 40.5°F4.7°C 39.4°F4.1°C 96% Calm Calm -- 30.44 in1030.8 mb - 0.00 in0.0 mm 0.00 in0.0 mm
05:30 AM 40.9°F4.9°C 39.8°F4.3°C 96% Calm Calm -- 30.43 in1030.5 mb - 0.00 in0.0 mm 0.00 in0.0 mm
05:40 AM 41.3°F5.2°C 40.2°F4.6°C 96% Calm Calm 1.2 mph1.9 kmh 30.44 in1030.8 mb - 0.00 in0.0 mm 0.00 in0.0 mm
05:50 AM 41.7°F5.4°C 40.6°F4.8°C 96% 2.3 mph NNW3.7 kmh NNW 2.3 mph3.7 kmh 30.45 in1031.2 mb - 0.00 in0.0 mm 0.00 in0.0 mm
06:00 AM 42.2°F5.7°C 41.1°F5.1°C 96% 2.3 mph NW3.7 kmh NW 2.3 mph3.7 kmh 30.46 in1031.5 mb - 0.00 in0.0 mm 0.00 in0.0 mm
06:10 AM 42.6°F5.9°C 41.5°F5.3°C 96% Calm Calm -- 30.47 in1031.8 mb - 0.00 in0.0 mm 0.00 in0.0 mm
06:20 AM 43.2°F6.2°C 42.1°F5.6°C 96% Calm Calm -- 30.46 in1031.5 mb - 0.00 in0.0 mm 0.00 in0.0 mm
06:30 AM 43.9°F6.6°C 42.8°F6.0°C 96% 1.2 mph NW1.9 kmh NW 2.3 mph3.7 kmh 30.46 in1031.5 mb - 0.00 in0.0 mm 0.00 in0.0 mm
06:40 AM 44.6°F7.0°C 43.5°F6.4°C 96% Calm Calm -- 30.47 in1031.8 mb - 0.00 in0.0 mm 0.00 in0.0 mm
06:50 AM 45.2°F7.3°C 44.4°F6.9°C 97% Calm Calm -- 30.47 in1031.8 mb - 0.00 in0.0 mm 0.00 in0.0 mm
07:00 AM 45.9°F7.7°C 45.1°F7.3°C 97% Calm Calm -- 30.47 in1031.8 mb - 0.00 in0.0 mm 0.00 in0.0 mm
07:10 AM 46.6°F8.1°C 45.8°F7.7°C 97% Calm Calm -- 30.47 in1031.8 mb - 0.00 in0.0 mm 0.00 in0.0 mm
07:20 AM 46.8°F8.2°C 46.0°F7.8°C 97% Calm Calm -- 30.47 in1031.8 mb - 0.00 in0.0 mm 0.00 in0.0 mm
07:30 AM 47.3°F8.5°C 45.4°F7.4°C 93% 3.5 mph SW5.6 kmh SW 2.3 mph3.7 kmh 30.49 in1032.5 mb - 0.00 in0.0 mm 0.00 in0.0 mm
07:40 AM 47.9°F8.8°C 44.5°F6.9°C 88% Calm Calm -- 30.49 in1032.5 mb - 0.00 in0.0 mm 0.00 in0.0 mm
07:50 AM 48.5°F9.2°C 44.2°F6.8°C 85% Calm Calm -- 30.49 in1032.5 mb - 0.00 in0.0 mm 0.00 in0.0 mm
08:00 AM 48.7°F9.3°C 44.4°F6.9°C 85% Calm Calm -- 30.48 in1032.2 mb - 0.00 in0.0 mm 0.00 in0.0 mm
08:10 AM 48.8°F9.3°C 43.9°F6.6°C 83% Calm Calm -- 30.49 in1032.5 mb - 0.00 in0.0 mm 0.00 in0.0 mm
08:20 AM 48.9°F9.4°C 43.6°F6.4°C 82% Calm Calm -- 30.49 in1032.5 mb - 0.00 in0.0 mm 0.00 in0.0 mm
08:30 AM 49.1°F9.5°C 42.5°F5.8°C 78% Calm Calm -- 30.49 in1032.5 mb - 0.00 in0.0 mm 0.00 in0.0 mm
08:40 AM 49.3°F9.6°C 43.4°F6.3°C 80% Calm Calm -- 30.50 in1032.8 mb - 0.00 in0.0 mm 0.00 in0.0 mm
08:50 AM 49.6°F9.8°C 44.0°F6.7°C 81% Calm Calm -- 30.50 in1032.8 mb - 0.00 in0.0 mm 0.00 in0.0 mm
09:00 AM 49.9°F9.9°C 43.3°F6.3°C 78% Calm Calm -- 30.49 in1032.5 mb - 0.00 in0.0 mm 0.00 in0.0 mm
09:10 AM 50.4°F10.2°C 41.7°F5.4°C 72% Calm Calm -- 30.51 in1033.2 mb - 0.00 in0.0 mm 0.00 in0.0 mm
09:20 AM 50.7°F10.4°C 42.0°F5.6°C 72% Calm Calm -- 30.50 in1032.8 mb - 0.00 in0.0 mm 0.00 in0.0 mm
09:30 AM 51.3°F10.7°C 41.1°F5.1°C 68% 2.3 mph SW3.7 kmh SW 2.3 mph3.7 kmh 30.50 in1032.8 mb - 0.00 in0.0 mm 0.00 in0.0 mm
09:40 AM 51.8°F11.0°C 41.2°F5.1°C 67% 1.2 mph SW1.9 kmh SW 2.3 mph3.7 kmh 30.49 in1032.5 mb - 0.00 in0.0 mm 0.00 in0.0 mm
09:50 AM 52.1°F11.2°C 39.9°F4.4°C 63% 3.5 mph SE5.6 kmh SE 2.3 mph3.7 kmh 30.50 in1032.8 mb - 0.00 in0.0 mm 0.00 in0.0 mm
10:00 AM 52.6°F11.4°C 41.1°F5.1°C 65% 2.3 mph ESE3.7 kmh ESE 2.3 mph3.7 kmh 30.50 in1032.8 mb - 0.00 in0.0 mm 0.00 in0.0 mm
10:10 AM 53.4°F11.9°C 40.2°F4.6°C 61% Calm Calm 1.2 mph1.9 kmh 30.50 in1032.8 mb - 0.00 in0.0 mm 0.00 in0.0 mm
10:20 AM 54.1°F12.3°C 40.5°F4.7°C 60% 1.2 mph W1.9 kmh W 2.3 mph3.7 kmh 30.50 in1032.8 mb - 0.00 in0.0 mm 0.00 in0.0 mm
10:30 AM 55.0°F12.8°C 40.5°F4.7°C 58% 2.3 mph E3.7 kmh E 2.3 mph3.7 kmh 30.49 in1032.5 mb - 0.00 in0.0 mm 0.00 in0.0 mm
10:40 AM 54.9°F12.7°C 41.7°F5.4°C 61% 1.2 mph E1.9 kmh E 2.3 mph3.7 kmh 30.49 in1032.5 mb - 0.00 in0.0 mm 0.00 in0.0 mm
10:50 AM 54.9°F12.7°C 38.6°F3.7°C 54% 3.5 mph N5.6 kmh N 2.3 mph3.7 kmh 30.49 in1032.5 mb - 0.00 in0.0 mm 0.00 in0.0 mm
11:00 AM 55.5°F13.1°C 39.6°F4.2°C 55% 1.2 mph SE1.9 kmh SE 2.3 mph3.7 kmh 30.48 in1032.2 mb - 0.00 in0.0 mm 0.00 in0.0 mm
11:10 AM 56.4°F13.6°C 37.5°F3.1°C 49% 1.2 mph S1.9 kmh S 1.2 mph1.9 kmh 30.48 in1032.2 mb - 0.00 in0.0 mm 0.00 in0.0 mm
11:20 AM 56.4°F13.6°C 38.0°F3.3°C 50% 3.5 mph NW5.6 kmh NW 5.8 mph9.3 kmh 30.48 in1032.2 mb - 0.00 in0.0 mm 0.00 in0.0 mm
11:30 AM 56.6°F13.7°C 37.6°F3.1°C 49% 2.3 mph SE3.7 kmh SE 2.3 mph3.7 kmh 30.48 in1032.2 mb - 0.00 in0.0 mm 0.00 in0.0 mm
11:40 AM 57.2°F14.0°C 38.8°F3.8°C 50% 1.2 mph NW1.9 kmh NW 5.8 mph9.3 kmh 30.47 in1031.8 mb - 0.00 in0.0 mm 0.00 in0.0 mm
11:50 AM 57.3°F14.1°C 34.3°F1.3°C 42% 2.3 mph WSW3.7 kmh WSW 3.5 mph5.6 kmh 30.47 in1031.8 mb - 0.00 in0.0 mm 0.00 in0.0 mm
12:00 PM 57.9°F14.4°C 38.3°F3.5°C 48% 1.2 mph WNW1.9 kmh WNW 1.2 mph1.9 kmh 30.47 in1031.8 mb - 0.00 in0.0 mm 0.00 in0.0 mm
12:10 PM 58.4°F14.7°C 35.4°F1.9°C 42% 2.3 mph S3.7 kmh S 3.5 mph5.6 kmh 30.47 in1031.8 mb - 0.00 in0.0 mm 0.00 in0.0 mm
12:20 PM 58.4°F14.7°C 34.8°F1.6°C 41% 4.6 mph WSW7.4 kmh WSW 2.3 mph3.7 kmh 30.46 in1031.5 mb - 0.00 in0.0 mm 0.00 in0.0 mm
12:30 PM 58.9°F14.9°C 34.6°F1.4°C 40% 2.3 mph W3.7 kmh W 2.3 mph3.7 kmh 30.47 in1031.8 mb - 0.00 in0.0 mm 0.00 in0.0 mm
12:40 PM 58.7°F14.8°C 36.3°F2.4°C 43% 2.3 mph NNW3.7 kmh NNW 2.3 mph3.7 kmh 30.46 in1031.5 mb - 0.00 in0.0 mm 0.00 in0.0 mm
12:50 PM 58.9°F14.9°C 33.3°F0.7°C 38% 3.5 mph ESE5.6 kmh ESE 2.3 mph3.7 kmh 30.46 in1031.5 mb - 0.00 in0.0 mm 0.00 in0.0 mm
01:00 PM 59.5°F15.3°C 33.9°F1.1°C 38% 2.3 mph S3.7 kmh S 5.8 mph9.3 kmh 30.45 in1031.2 mb - 0.00 in0.0 mm 0.00 in0.0 mm
01:10 PM 59.4°F15.2°C 35.7°F2.1°C 41% 3.5 mph SE5.6 kmh SE 5.8 mph9.3 kmh 30.46 in1031.5 mb - 0.00 in0.0 mm 0.00 in0.0 mm
01:20 PM 59.1°F15.1°C 34.8°F1.6°C 40% 2.3 mph S3.7 kmh S 2.3 mph3.7 kmh 30.46 in1031.5 mb - 0.00 in0.0 mm 0.00 in0.0 mm
01:30 PM 58.9°F14.9°C 31.2°F-0.4°C 35% 3.5 mph S5.6 kmh S 2.3 mph3.7 kmh 30.46 in1031.5 mb - 0.00 in0.0 mm 0.00 in0.0 mm
01:40 PM 58.7°F14.8°C 31.8°F-0.1°C 36% 3.5 mph SSE5.6 kmh SSE 2.3 mph3.7 kmh 30.45 in1031.2 mb - 0.00 in0.0 mm 0.00 in0.0 mm
01:50 PM 58.9°F14.9°C 34.6°F1.4°C 40% 1.2 mph SW1.9 kmh SW 2.3 mph3.7 kmh 30.45 in1031.2 mb - 0.00 in0.0 mm 0.00 in0.0 mm
02:00 PM 58.8°F14.9°C 33.9°F1.1°C 39% 4.6 mph SW7.4 kmh SW 9.2 mph14.8 kmh 30.44 in1030.8 mb - 0.00 in0.0 mm 0.00 in0.0 mm
02:10 PM 57.9°F14.4°C 34.9°F1.6°C 42% 3.5 mph ESE5.6 kmh ESE 2.3 mph3.7 kmh 30.44 in1030.8 mb - 0.00 in0.0 mm 0.00 in0.0 mm
02:20 PM 57.7°F14.3°C 35.9°F2.2°C 44% 3.5 mph ESE5.6 kmh ESE 2.3 mph3.7 kmh 30.43 in1030.5 mb - 0.00 in0.0 mm 0.00 in0.0 mm
02:30 PM 57.7°F14.3°C 34.7°F1.5°C 42% 2.3 mph SE3.7 kmh SE 3.5 mph5.6 kmh 30.43 in1030.5 mb - 0.00 in0.0 mm 0.00 in0.0 mm
02:40 PM 57.5°F14.2°C 34.0°F1.1°C 41% 3.5 mph SSE5.6 kmh SSE 2.3 mph3.7 kmh 30.42 in1030.1 mb - 0.00 in0.0 mm 0.00 in0.0 mm
02:50 PM 57.3°F14.1°C 35.6°F2.0°C 44% 2.3 mph ESE3.7 kmh ESE 2.3 mph3.7 kmh 30.42 in1030.1 mb - 0.00 in0.0 mm 0.00 in0.0 mm
03:00 PM 57.5°F14.2°C 35.8°F2.1°C 44% 1.2 mph S1.9 kmh S 2.3 mph3.7 kmh 30.41 in1029.8 mb - 0.00 in0.0 mm 0.00 in0.0 mm
03:10 PM 57.5°F14.2°C 36.3°F2.4°C 45% 2.3 mph E3.7 kmh E 2.3 mph3.7 kmh 30.40 in1029.5 mb - 0.00 in0.0 mm 0.00 in0.0 mm
03:20 PM 56.9°F13.8°C 34.6°F1.4°C 43% 2.3 mph SSE3.7 kmh SSE 5.8 mph9.3 kmh 30.40 in1029.5 mb - 0.00 in0.0 mm 0.00 in0.0 mm
03:30 PM 56.2°F13.4°C 35.6°F2.0°C 46% 1.2 mph E1.9 kmh E 2.3 mph3.7 kmh 30.40 in1029.5 mb - 0.00 in0.0 mm 0.00 in0.0 mm
03:40 PM 55.5°F13.1°C 33.9°F1.1°C 44% 4.6 mph S7.4 kmh S 5.8 mph9.3 kmh 30.40 in1029.5 mb - 0.00 in0.0 mm 0.00 in0.0 mm
03:50 PM 54.9°F12.7°C 34.5°F1.4°C 46% 3.5 mph SE5.6 kmh SE 3.5 mph5.6 kmh 30.39 in1029.1 mb - 0.00 in0.0 mm 0.00 in0.0 mm
04:00 PM 54.5°F12.5°C 34.1°F1.2°C 46% 1.2 mph SW1.9 kmh SW 2.3 mph3.7 kmh 30.39 in1029.1 mb - 0.00 in0.0 mm 0.00 in0.0 mm
04:10 PM 54.3°F12.4°C 34.5°F1.4°C 47% 2.3 mph SSE3.7 kmh SSE 2.3 mph3.7 kmh 30.39 in1029.1 mb - 0.00 in0.0 mm 0.00 in0.0 mm
04:20 PM 53.9°F12.2°C 35.2°F1.8°C 49% 2.3 mph SSE3.7 kmh SSE 2.3 mph3.7 kmh 30.39 in1029.1 mb - 0.00 in0.0 mm 0.00 in0.0 mm
04:30 PM 53.7°F12.1°C 33.9°F1.1°C 47% 3.5 mph SE5.6 kmh SE 5.8 mph9.3 kmh 30.38 in1028.8 mb - 0.00 in0.0 mm 0.00 in0.0 mm
04:40 PM 53.4°F11.9°C 35.7°F2.1°C 51% 2.3 mph E3.7 kmh E 2.3 mph3.7 kmh 30.38 in1028.8 mb - 0.00 in0.0 mm 0.00 in0.0 mm
04:50 PM 53.1°F11.7°C 34.9°F1.6°C 50% 3.5 mph SSE5.6 kmh SSE 3.5 mph5.6 kmh 30.38 in1028.8 mb - 0.00 in0.0 mm 0.00 in0.0 mm
05:00 PM 52.7°F11.5°C 33.0°F0.6°C 47% 2.3 mph SSE3.7 kmh SSE 5.8 mph9.3 kmh 30.38 in1028.8 mb - 0.00 in0.0 mm 0.00 in0.0 mm
05:10 PM 52.5°F11.4°C 33.9°F1.1°C 49% 2.3 mph SSE3.7 kmh SSE 3.5 mph5.6 kmh 30.38 in1028.8 mb - 0.00 in0.0 mm 0.00 in0.0 mm
05:20 PM 52.2°F11.2°C 34.1°F1.2°C 50% 2.3 mph SE3.7 kmh SE 2.3 mph3.7 kmh 30.37 in1028.4 mb - 0.00 in0.0 mm 0.00 in0.0 mm
05:30 PM 51.9°F11.1°C 34.8°F1.6°C 52% 2.3 mph SE3.7 kmh SE 2.3 mph3.7 kmh 30.37 in1028.4 mb - 0.00 in0.0 mm 0.00 in0.0 mm
05:40 PM 51.7°F10.9°C 36.0°F2.2°C 55% 2.3 mph S3.7 kmh S 2.3 mph3.7 kmh 30.37 in1028.4 mb - 0.00 in0.0 mm 0.00 in0.0 mm
05:50 PM 51.6°F10.9°C 36.9°F2.7°C 57% 1.2 mph SSE1.9 kmh SSE 2.3 mph3.7 kmh 30.37 in1028.4 mb - 0.00 in0.0 mm 0.00 in0.0 mm
06:00 PM 51.4°F10.8°C 37.5°F3.1°C 59% 2.3 mph SE3.7 kmh SE 5.8 mph9.3 kmh 30.37 in1028.4 mb - 0.00 in0.0 mm 0.00 in0.0 mm
06:10 PM 51.2°F10.7°C 38.2°F3.4°C 61% 2.3 mph SE3.7 kmh SE 6.9 mph11.1 kmh 30.36 in1028.1 mb - 0.00 in0.0 mm 0.00 in0.0 mm
06:20 PM 51.1°F10.6°C 38.5°F3.6°C 62% Calm Calm 1.2 mph1.9 kmh 30.37 in1028.4 mb - 0.00 in0.0 mm 0.00 in0.0 mm
06:30 PM 50.9°F10.5°C 38.3°F3.5°C 62% 1.2 mph S1.9 kmh S 2.3 mph3.7 kmh 30.37 in1028.4 mb - 0.00 in0.0 mm 0.00 in0.0 mm
06:40 PM 50.8°F10.4°C 40.2°F4.6°C 67% 2.3 mph ESE3.7 kmh ESE 2.3 mph3.7 kmh 30.37 in1028.4 mb - 0.00 in0.0 mm 0.00 in0.0 mm
06:50 PM 50.5°F10.3°C 39.9°F4.4°C 67% 1.2 mph SE1.9 kmh SE 2.3 mph3.7 kmh 30.36 in1028.1 mb - 0.00 in0.0 mm 0.00 in0.0 mm
07:00 PM 50.4°F10.2°C 40.2°F4.6°C 68% 1.2 mph SE1.9 kmh SE 2.3 mph3.7 kmh 30.35 in1027.8 mb - 0.00 in0.0 mm 0.00 in0.0 mm
07:10 PM 50.3°F10.2°C 40.5°F4.7°C 69% 1.2 mph S1.9 kmh S 2.3 mph3.7 kmh 30.35 in1027.8 mb - 0.00 in0.0 mm 0.00 in0.0 mm
07:20 PM 50.1°F10.1°C 40.3°F4.6°C 69% 2.3 mph SSE3.7 kmh SSE 2.3 mph3.7 kmh 30.34 in1027.4 mb - 0.00 in0.0 mm 0.00 in0.0 mm
07:30 PM 50.0°F10.0°C 41.0°F5.0°C 71% Calm Calm 2.3 mph3.7 kmh 30.34 in1027.4 mb - 0.00 in0.0 mm 0.00 in0.0 mm
07:40 PM 49.9°F9.9°C 41.2°F5.1°C 72% Calm Calm -- 30.34 in1027.4 mb - 0.00 in0.0 mm 0.00 in0.0 mm
07:50 PM 49.8°F9.9°C 41.1°F5.1°C 72% 2.3 mph S3.7 kmh S 2.3 mph3.7 kmh 30.34 in1027.4 mb - 0.00 in0.0 mm 0.00 in0.0 mm
08:00 PM 49.7°F9.8°C 41.4°F5.2°C 73% 2.3 mph SE3.7 kmh SE 2.3 mph3.7 kmh 30.33 in1027.1 mb - 0.00 in0.0 mm 0.00 in0.0 mm
08:10 PM 49.7°F9.8°C 41.4°F5.2°C 73% 2.3 mph ESE3.7 kmh ESE 2.3 mph3.7 kmh 30.33 in1027.1 mb - 0.00 in0.0 mm 0.00 in0.0 mm
09:50 PM 49.6°F9.8°C 41.7°F5.4°C 74% Calm Calm 2.3 mph3.7 kmh 30.32 in1026.8 mb - 0.00 in0.0 mm 0.00 in0.0 mm
10:00 PM 49.6°F9.8°C 41.7°F5.4°C 74% 1.2 mph SE1.9 kmh SE 1.2 mph1.9 kmh 30.32 in1026.8 mb - 0.00 in0.0 mm 0.00 in0.0 mm
10:10 PM 48.0°F8.9°C 45.5°F7.5°C 91% 2.3 mph SW3.7 kmh SW 6.9 mph11.1 kmh 30.26 in1024.7 mb - 0.00 in0.0 mm 0.00 in0.0 mm
10:20 PM 47.7°F8.7°C 46.3°F7.9°C 95% 2.3 mph S3.7 kmh S 2.3 mph3.7 kmh 30.25 in1024.4 mb - 0.00 in0.0 mm 0.00 in0.0 mm
10:30 PM 47.3°F8.5°C 46.5°F8.1°C 97% Calm Calm -- 30.25 in1024.4 mb - 0.00 in0.0 mm 0.00 in0.0 mm
10:40 PM 47.1°F8.4°C 46.3°F7.9°C 97% 1.2 mph S1.9 kmh S 1.2 mph1.9 kmh 30.24 in1024.0 mb - 0.00 in0.0 mm 0.00 in0.0 mm
10:50 PM 46.9°F8.3°C 46.1°F7.8°C 97% Calm Calm -- 30.23 in1023.7 mb - 0.00 in0.0 mm 0.00 in0.0 mm
11:00 PM 46.8°F8.2°C 46.0°F7.8°C 97% 2.3 mph S3.7 kmh S 2.3 mph3.7 kmh 30.24 in1024.0 mb - 0.00 in0.0 mm 0.00 in0.0 mm
11:10 PM 46.7°F8.2°C 45.9°F7.7°C 97% 1.2 mph SE1.9 kmh SE 2.3 mph3.7 kmh 30.22 in1023.4 mb - 0.00 in0.0 mm 0.00 in0.0 mm
11:20 PM 46.8°F8.2°C 46.0°F7.8°C 97% 2.3 mph SW3.7 kmh SW 2.3 mph3.7 kmh 30.22 in1023.4 mb - 0.00 in0.0 mm 0.00 in0.0 mm
11:30 PM 46.8°F8.2°C 46.0°F7.8°C 97% 2.3 mph S3.7 kmh S 2.3 mph3.7 kmh 30.20 in1022.7 mb - 0.00 in0.0 mm 0.00 in0.0 mm
11:40 PM 46.8°F8.2°C 46.0°F7.8°C 97% 2.3 mph SSW3.7 kmh SSW 1.2 mph1.9 kmh 30.20 in1022.7 mb - 0.00 in0.0 mm 0.00 in0.0 mm
11:50 PM 46.9°F8.3°C 46.1°F7.8°C 97% Calm Calm 1.2 mph1.9 kmh 30.20 in1022.7 mb - 0.00 in0.0 mm 0.00 in0.0 mm